createdAt,value
2019-01-06T00:00:14.882Z,7.02
2019-01-06T00:01:13.632Z,6.99
2019-01-06T00:02:12.177Z,7.05
2019-01-06T00:03:10.765Z,7.06
2019-01-06T00:04:09.598Z,7.15
2019-01-06T00:05:08.173Z,7.21
2019-01-06T00:06:06.719Z,7.16
2019-01-06T00:07:05.397Z,7.09
2019-01-06T00:08:03.981Z,7.02
2019-01-06T00:09:02.541Z,7.17
2019-01-06T00:10:01.265Z,7.25
2019-01-06T00:11:00.145Z,7.1
2019-01-06T00:11:58.765Z,7.1
2019-01-06T00:12:57.473Z,6.99
2019-01-06T00:13:56.038Z,6.98
2019-01-06T00:14:54.639Z,7.1
2019-01-06T00:15:53.330Z,7.15
2019-01-06T00:16:52.983Z,7.16
2019-01-06T00:17:51.849Z,7.1
2019-01-06T00:18:50.336Z,7.16
2019-01-06T00:19:48.917Z,7.09
2019-01-06T00:20:47.598Z,7.13
2019-01-06T00:21:46.192Z,7.2
2019-01-06T00:22:44.854Z,7.24
2019-01-06T00:23:43.536Z,7.07
2019-01-06T00:24:42.270Z,7.2
2019-01-06T00:25:40.971Z,7.21
2019-01-06T00:26:39.676Z,7.13
2019-01-06T00:27:38.184Z,7.06
2019-01-06T00:28:36.719Z,7.07
2019-01-06T00:29:35.235Z,7.07
2019-01-06T00:30:33.782Z,7.09
2019-01-06T00:31:32.366Z,7.02
2019-01-06T00:32:30.880Z,7.09
2019-01-06T00:33:29.410Z,7.09
2019-01-06T00:34:27.994Z,6.98
2019-01-06T00:35:26.545Z,7.09
2019-01-06T00:36:25.251Z,7.05
2019-01-06T00:37:23.956Z,7.06
2019-01-06T00:38:22.574Z,7.06
2019-01-06T00:39:21.173Z,7.2
2019-01-06T00:40:19.864Z,7.17
2019-01-06T00:42:59.896Z,7.06
2019-01-06T00:43:58.431Z,7.12
2019-01-06T00:44:56.975Z,7.16
2019-01-06T00:45:55.473Z,7.1
2019-01-06T00:46:53.971Z,7.12
2019-01-06T00:47:52.613Z,7.13
2019-01-06T00:48:51.298Z,7.2
2019-01-06T00:49:49.997Z,7.16
2019-01-06T00:50:48.546Z,7.16
2019-01-06T00:51:47.324Z,7.15
2019-01-06T00:52:46.008Z,7.34
2019-01-06T00:53:44.580Z,7.31
2019-01-06T00:54:43.384Z,7.34
2019-01-06T00:55:42.082Z,7.31
2019-01-06T00:56:40.749Z,7.27
2019-01-06T00:57:39.401Z,7.3
2019-01-06T00:58:38.063Z,7.15
2019-01-06T00:59:36.782Z,7.17
2019-01-06T01:00:35.591Z,7.12
2019-01-06T01:01:34.217Z,7.21
2019-01-06T01:02:32.791Z,7.17
2019-01-06T01:03:31.488Z,7.13
2019-01-06T01:04:30.053Z,7.25
2019-01-06T01:05:28.630Z,7.2
2019-01-06T01:06:27.220Z,7.21
2019-01-06T01:07:25.892Z,7.21
2019-01-06T01:08:24.418Z,7.17
2019-01-06T01:09:23.236Z,7.27
2019-01-06T01:11:46.895Z,7.17
2019-01-06T01:12:45.526Z,7.15
2019-01-06T01:13:44.105Z,7.23
2019-01-06T01:14:42.668Z,7.28
2019-01-06T01:15:41.237Z,7.31
2019-01-06T01:16:39.809Z,7.27
2019-01-06T01:17:38.389Z,7.27
2019-01-06T01:18:37.136Z,7.23
2019-01-06T01:19:35.868Z,7.25
2019-01-06T01:20:34.549Z,7.2
2019-01-06T01:21:33.210Z,7.13
2019-01-06T01:22:31.793Z,7.21
2019-01-06T01:23:30.666Z,7.17
2019-01-06T01:24:29.617Z,7.16
2019-01-06T01:25:28.160Z,7.27
2019-01-06T01:26:26.672Z,7.27
2019-01-06T01:27:25.303Z,7.13
2019-01-06T01:28:23.898Z,7.21
2019-01-06T01:29:22.487Z,7.2
2019-01-06T01:30:20.969Z,7.25
2019-01-06T01:31:19.557Z,7.24
2019-01-06T01:32:18.103Z,7.27
2019-01-06T01:33:16.676Z,7.13
2019-01-06T01:34:15.375Z,7.17
2019-01-06T01:35:14.105Z,7.17
2019-01-06T01:36:12.681Z,7.13
2019-01-06T01:37:11.385Z,7.15
2019-01-06T01:38:10.007Z,7.23
2019-01-06T01:39:08.557Z,7.2
2019-01-06T01:40:07.172Z,7.34
2019-01-06T01:41:05.686Z,7.3
2019-01-06T01:42:04.190Z,7.15
2019-01-06T01:43:02.880Z,7.21
2019-01-06T01:44:01.487Z,7.27
2019-01-06T01:45:00.250Z,7.15
2019-01-06T01:45:58.658Z,7.21
2019-01-06T01:46:57.517Z,7.1
2019-01-06T01:47:56.064Z,7.23
2019-01-06T01:48:54.579Z,7.15
2019-01-06T01:49:53.167Z,7.16
2019-01-06T01:50:51.743Z,7.17
2019-01-06T01:51:50.251Z,7.27
2019-01-06T01:52:48.750Z,7.17
2019-01-06T01:53:47.329Z,7.15
2019-01-06T01:54:45.887Z,7.12
2019-01-06T01:55:44.448Z,7.21
2019-01-06T01:56:42.980Z,7.1
2019-01-06T01:57:41.961Z,7.13
2019-01-06T01:58:40.277Z,7.15
2019-01-06T01:59:38.813Z,7.1
2019-01-06T02:00:37.832Z,7.12
2019-01-06T02:01:36.391Z,6.99
2019-01-06T02:02:34.996Z,6.91
2019-01-06T02:03:33.552Z,7.06
2019-01-06T02:04:32.082Z,7.03
2019-01-06T02:05:30.596Z,7.12
2019-01-06T02:06:29.347Z,7.02
2019-01-06T02:07:28.162Z,6.97
2019-01-06T02:08:26.766Z,6.91
2019-01-06T02:09:25.852Z,6.98
2019-01-06T02:10:24.367Z,7.03
2019-01-06T02:11:22.930Z,6.99
2019-01-06T02:12:21.759Z,7.06
2019-01-06T02:13:20.276Z,6.97
2019-01-06T02:14:18.941Z,7.02
2019-01-06T02:15:17.707Z,6.99
2019-01-06T02:16:16.236Z,6.97
2019-01-06T02:17:14.899Z,7.06
2019-01-06T02:18:13.576Z,6.91
2019-01-06T02:19:12.301Z,6.98
2019-01-06T02:20:10.970Z,7.07
2019-01-06T02:21:09.760Z,7.07
2019-01-06T02:22:08.266Z,7.02
2019-01-06T02:23:06.838Z,7.05
2019-01-06T02:24:05.315Z,7.1
2019-01-06T02:25:03.826Z,7.02
2019-01-06T02:26:02.396Z,7.12
2019-01-06T02:27:01.215Z,7.05
2019-01-06T02:27:59.944Z,7.05
2019-01-06T02:30:40.015Z,7.07
2019-01-06T02:31:38.588Z,7.12
2019-01-06T02:32:37.281Z,7.13
2019-01-06T02:33:35.863Z,7.09
2019-01-06T02:34:34.401Z,7.06
2019-01-06T02:35:32.938Z,7.06
2019-01-06T02:38:13.581Z,7.13
2019-01-06T02:39:12.137Z,7.1
2019-01-06T02:40:10.689Z,7.17
2019-01-06T02:41:09.475Z,7.16
2019-01-06T02:42:08.006Z,7.13
2019-01-06T02:43:06.527Z,7.13
2019-01-06T02:44:05.239Z,7.2
2019-01-06T02:45:04.591Z,7.05
2019-01-06T02:46:03.222Z,7.02
2019-01-06T02:47:01.945Z,7.1
2019-01-06T02:48:00.487Z,7.07
2019-01-06T02:48:59.255Z,7.17
2019-01-06T02:49:57.888Z,7.16
2019-01-06T02:50:56.448Z,7.06
2019-01-06T02:51:55.013Z,7.17
2019-01-06T02:52:53.498Z,7.1
2019-01-06T02:53:51.988Z,7.16
2019-01-06T02:54:50.540Z,7.05
2019-01-06T02:55:49.027Z,6.98
2019-01-06T02:56:47.606Z,6.95
2019-01-06T02:57:46.115Z,7.03
2019-01-06T02:58:44.633Z,7.02
2019-01-06T02:59:43.193Z,6.95
2019-01-06T03:00:41.740Z,7.09
2019-01-06T03:01:40.223Z,7.13
2019-01-06T03:02:38.796Z,7.06
2019-01-06T03:03:37.313Z,7.12
2019-01-06T03:04:35.863Z,7.03
2019-01-06T03:06:58.856Z,7.05
2019-01-06T03:07:57.630Z,7.06
2019-01-06T03:08:56.453Z,7.03
2019-01-06T03:09:55.063Z,7.15
2019-01-06T03:10:53.769Z,7.16
2019-01-06T03:11:52.341Z,7.15
2019-01-06T03:12:50.935Z,7.2
2019-01-06T03:13:49.651Z,7.2
2019-01-06T03:14:48.208Z,7.16
2019-01-06T03:15:46.863Z,7.24
2019-01-06T03:16:45.349Z,7.17
2019-01-06T03:17:43.889Z,7.21
2019-01-06T03:18:42.612Z,7.15
2019-01-06T03:19:41.583Z,7.06
2019-01-06T03:20:40.134Z,7.21
2019-01-06T03:21:38.680Z,7.12
2019-01-06T03:22:37.343Z,7.2
2019-01-06T03:23:35.858Z,7.23
2019-01-06T03:24:34.404Z,7.13
2019-01-06T03:25:32.935Z,7.16
2019-01-06T03:26:31.474Z,7.09
2019-01-06T03:27:30.017Z,7.05
2019-01-06T03:28:28.558Z,7.13
2019-01-06T03:29:27.168Z,7.16
2019-01-06T03:30:25.850Z,7.23
2019-01-06T03:31:24.421Z,7.24
2019-01-06T03:32:23.029Z,7.21
2019-01-06T03:33:21.783Z,7.25
2019-01-06T03:34:20.247Z,7.28
2019-01-06T03:35:18.802Z,7.28
2019-01-06T03:36:17.526Z,7.31
2019-01-06T03:38:57.932Z,7.12
2019-01-06T03:39:56.451Z,7.15
2019-01-06T03:40:55.153Z,7.25
2019-01-06T03:41:53.936Z,7.32
2019-01-06T03:42:52.439Z,7.27
2019-01-06T03:43:51.202Z,7.31
2019-01-06T03:44:49.800Z,7.2
2019-01-06T03:45:48.349Z,7.1
2019-01-06T03:46:47.019Z,7.13
2019-01-06T03:47:45.828Z,7.2
2019-01-06T03:48:44.582Z,7.21
2019-01-06T03:49:43.077Z,7.24
2019-01-06T03:50:41.671Z,7.23
2019-01-06T03:51:40.232Z,7.1
2019-01-06T03:52:38.970Z,7.07
2019-01-06T03:53:37.559Z,7.16
2019-01-06T03:54:36.367Z,7.15
2019-01-06T03:55:35.093Z,7.13
2019-01-06T03:56:33.713Z,7.23
2019-01-06T03:57:32.284Z,7.15
2019-01-06T03:58:30.806Z,7.23
2019-01-06T03:59:29.423Z,7.13
2019-01-06T04:00:27.897Z,7.16
2019-01-06T04:01:26.496Z,7.12
2019-01-06T04:02:25.199Z,7.17
2019-01-06T04:03:23.831Z,7.13
2019-01-06T04:04:22.401Z,7.15
2019-01-06T04:05:21.160Z,7.21
2019-01-06T04:06:19.900Z,7.2
2019-01-06T04:07:18.437Z,7.05
2019-01-06T04:08:16.984Z,7.09
2019-01-06T04:09:15.550Z,6.98
2019-01-06T04:10:14.138Z,7.17
2019-01-06T04:11:15.187Z,7.07
2019-01-06T04:12:11.162Z,7.03
2019-01-06T04:13:10.053Z,7.02
2019-01-06T04:14:08.648Z,7.03
2019-01-06T04:15:07.413Z,7.16
2019-01-06T04:16:06.072Z,7.09
2019-01-06T04:17:04.555Z,7.12
2019-01-06T04:18:03.087Z,7.17
2019-01-06T04:19:01.683Z,7.1
2019-01-06T04:20:00.330Z,7.15
2019-01-06T04:20:59.034Z,7.23
2019-01-06T04:21:57.883Z,7.31
2019-01-06T04:22:56.414Z,7.27
2019-01-06T04:23:55.070Z,7.27
2019-01-06T04:24:53.849Z,7.2
2019-01-06T04:25:52.428Z,7.21
2019-01-06T04:26:51.072Z,7.21
2019-01-06T04:27:49.976Z,7.13
2019-01-06T04:28:48.490Z,7.1
2019-01-06T04:29:47.147Z,7.07
2019-01-06T04:30:45.818Z,7.07
2019-01-06T04:31:44.364Z,7.03
2019-01-06T04:32:42.864Z,7.09
2019-01-06T04:33:41.405Z,7.12
2019-01-06T04:34:40.029Z,7.06
2019-01-06T04:35:38.573Z,7.02
2019-01-06T04:36:37.226Z,7.05
2019-01-06T04:37:35.896Z,7.09
2019-01-06T04:38:34.448Z,7.12
2019-01-06T04:39:33.252Z,7.17
2019-01-06T04:40:31.964Z,7.17
2019-01-06T04:41:30.619Z,7.23
2019-01-06T04:42:29.898Z,7.24
2019-01-06T04:43:28.428Z,7.32
2019-01-06T04:44:26.991Z,7.32
2019-01-06T04:45:25.597Z,7.24
2019-01-06T04:46:24.111Z,7.3
2019-01-06T04:47:22.656Z,7.28
2019-01-06T04:48:21.225Z,7.34
2019-01-06T04:49:19.802Z,7.28
2019-01-06T04:50:18.328Z,7.37
2019-01-06T04:51:16.917Z,7.46
2019-01-06T04:52:15.533Z,7.39
2019-01-06T04:53:14.258Z,7.3
2019-01-06T04:54:12.821Z,7.35
2019-01-06T04:55:11.533Z,7.31
2019-01-06T04:56:10.095Z,7.35
2019-01-06T04:57:08.625Z,7.46
2019-01-06T04:58:07.266Z,7.4
2019-01-06T04:59:05.903Z,7.4
2019-01-06T05:00:04.503Z,7.46
2019-01-06T05:01:03.199Z,7.43
2019-01-06T05:02:02.098Z,7.49
2019-01-06T05:03:00.623Z,7.5
2019-01-06T05:03:59.223Z,7.4
2019-01-06T05:04:57.972Z,7.48
2019-01-06T05:05:56.478Z,7.37
2019-01-06T05:06:55.216Z,7.3
2019-01-06T05:07:53.979Z,7.3
2019-01-06T05:08:52.480Z,7.34
2019-01-06T05:09:51.214Z,7.28
2019-01-06T05:10:49.936Z,7.28
2019-01-06T05:11:48.443Z,7.24
2019-01-06T05:12:46.997Z,7.27
2019-01-06T05:13:45.566Z,7.23
2019-01-06T05:14:44.044Z,7.24
2019-01-06T05:15:42.573Z,7.21
2019-01-06T05:16:41.150Z,7.25
2019-01-06T05:17:39.646Z,7.27
2019-01-06T05:18:38.196Z,7.32
2019-01-06T05:19:36.759Z,7.28
2019-01-06T05:20:35.179Z,7.43
2019-01-06T05:21:33.851Z,7.4
2019-01-06T05:22:32.433Z,7.3
2019-01-06T05:23:31.077Z,7.31
2019-01-06T05:24:29.905Z,7.21
2019-01-06T05:25:28.495Z,7.27
2019-01-06T05:26:27.137Z,7.23
2019-01-06T05:27:25.683Z,7.15
2019-01-06T05:28:24.254Z,7.3
2019-01-06T05:29:22.786Z,7.28
2019-01-06T05:30:21.378Z,7.17
2019-01-06T05:31:19.903Z,7.13
2019-01-06T05:32:18.730Z,7.24
2019-01-06T05:33:17.629Z,7.23
2019-01-06T05:34:16.179Z,7.28
2019-01-06T05:35:14.666Z,7.25
2019-01-06T05:36:13.341Z,7.23
2019-01-06T05:37:11.977Z,7.2
2019-01-06T05:38:10.443Z,7.23
2019-01-06T05:39:09.084Z,7.24
2019-01-06T05:40:07.824Z,7.09
2019-01-06T05:41:06.344Z,7.09
2019-01-06T05:42:04.866Z,7.09
2019-01-06T05:43:03.891Z,7.16
2019-01-06T05:44:02.448Z,7.13
2019-01-06T05:45:00.948Z,7.13
2019-01-06T05:45:59.518Z,7.17
2019-01-06T05:46:58.079Z,7.25
2019-01-06T05:47:56.614Z,7.25
2019-01-06T05:48:55.116Z,7.2
2019-01-06T05:49:53.773Z,7.16
2019-01-06T05:50:52.539Z,7.1
2019-01-06T05:51:51.528Z,7.17
2019-01-06T05:52:50.109Z,7.21
2019-01-06T05:53:48.674Z,7.07
2019-01-06T05:54:47.194Z,7.06
2019-01-06T05:55:45.750Z,7.05
2019-01-06T05:56:44.242Z,7.12
2019-01-06T05:57:42.787Z,7.09
2019-01-06T05:58:41.347Z,7.09
2019-01-06T05:59:39.942Z,7.02
2019-01-06T06:00:38.390Z,7.02
2019-01-06T06:01:37.030Z,6.97
2019-01-06T06:02:35.712Z,6.97
2019-01-06T06:03:34.249Z,7.03
2019-01-06T06:04:32.760Z,6.87
2019-01-06T06:05:31.545Z,7.1
2019-01-06T06:09:10.413Z,7.2
2019-01-06T06:10:08.913Z,7.17
2019-01-06T06:11:07.436Z,7.15
2019-01-06T06:12:05.995Z,7.07
2019-01-06T06:13:04.572Z,7.09
2019-01-06T06:14:03.308Z,7.15
2019-01-06T06:15:01.948Z,7.23
2019-01-06T06:16:00.487Z,7.23
2019-01-06T06:16:59.296Z,7.15
2019-01-06T06:19:39.452Z,7.07
2019-01-06T06:20:38.031Z,7.2
2019-01-06T06:21:36.541Z,7.06
2019-01-06T06:22:35.943Z,7.07
2019-01-06T06:23:34.488Z,7.12
2019-01-06T06:24:32.941Z,7.16
2019-01-06T06:25:31.510Z,7.09
2019-01-06T06:26:30.036Z,7.15
2019-01-06T06:27:28.585Z,7.1
2019-01-06T06:37:23.745Z,6.91
2019-01-06T06:38:22.289Z,7.03
2019-01-06T06:39:20.841Z,7.13
2019-01-06T06:40:19.860Z,7.12
2019-01-06T06:41:18.341Z,7.05
2019-01-06T06:42:16.934Z,7.09
2019-01-06T06:43:15.633Z,7.12
2019-01-06T06:44:14.215Z,6.95
2019-01-06T06:45:12.657Z,6.99
2019-01-06T06:46:11.215Z,7.12
2019-01-06T06:47:09.727Z,7.21
2019-01-06T06:48:08.523Z,7.24
2019-01-06T06:49:06.994Z,7.17
2019-01-06T06:50:05.786Z,7.23
2019-01-06T06:51:04.299Z,7.25
2019-01-06T06:52:03.020Z,7.21
2019-01-06T06:53:01.682Z,7.17
2019-01-06T06:54:00.262Z,7.05
2019-01-06T06:54:58.793Z,7.13
2019-01-06T06:55:57.618Z,7.2
2019-01-06T06:56:56.327Z,7.15
2019-01-06T06:57:54.916Z,7.24
2019-01-06T06:58:53.595Z,7.31
2019-01-06T06:59:52.105Z,7.15
2019-01-06T07:00:50.690Z,7.25
2019-01-06T07:01:49.381Z,7.28
2019-01-06T07:02:47.897Z,7.21
2019-01-06T07:03:46.442Z,7.15
2019-01-06T07:04:45.224Z,7.17
2019-01-06T07:05:44.058Z,7.27
2019-01-06T07:06:42.886Z,7.27
2019-01-06T07:07:41.697Z,7.32
2019-01-06T07:08:40.348Z,7.21
2019-01-06T07:09:38.929Z,7.3
2019-01-06T07:10:37.899Z,7.3
2019-01-06T07:11:37.370Z,7.35
2019-01-06T07:12:35.104Z,7.27
2019-01-06T07:13:33.743Z,7.3
2019-01-06T07:14:32.363Z,7.28
2019-01-06T07:15:30.883Z,7.32
2019-01-06T07:16:29.838Z,7.28
2019-01-06T07:17:28.436Z,7.34
2019-01-06T07:18:27.153Z,7.3
2019-01-06T07:19:25.694Z,7.3
2019-01-06T07:20:24.260Z,7.3
2019-01-06T07:21:22.816Z,7.34
2019-01-06T07:22:21.468Z,7.24
2019-01-06T07:23:20.174Z,7.3
2019-01-06T07:24:18.826Z,7.34
2019-01-06T07:25:17.597Z,7.31
2019-01-06T07:26:16.322Z,7.39
2019-01-06T07:27:14.993Z,7.3
2019-01-06T07:28:13.841Z,7.28
2019-01-06T07:29:12.412Z,7.27
2019-01-06T07:30:11.088Z,7.34
2019-01-06T07:31:10.111Z,7.32
2019-01-06T07:32:08.792Z,7.31
2019-01-06T07:35:47.924Z,7.17
2019-01-06T07:36:46.484Z,7.24
2019-01-06T07:37:45.145Z,7.3
2019-01-06T07:38:43.951Z,7.34
2019-01-06T07:39:42.555Z,7.45
2019-01-06T07:40:41.189Z,7.3
2019-01-06T07:41:39.845Z,7.45
2019-01-06T07:42:38.428Z,7.34
2019-01-06T07:43:37.102Z,7.27
2019-01-06T07:44:35.773Z,7.27
2019-01-06T07:45:34.524Z,7.32
2019-01-06T07:46:33.242Z,7.25
2019-01-06T07:47:31.896Z,7.21
2019-01-06T07:48:30.496Z,7.31
2019-01-06T07:51:10.709Z,7.28
2019-01-06T07:52:09.672Z,7.37
2019-01-06T07:53:08.271Z,7.25
2019-01-06T07:54:06.872Z,7.35
2019-01-06T07:55:05.455Z,7.21
2019-01-06T07:56:04.024Z,7.31
2019-01-06T07:57:02.738Z,7.27
2019-01-06T07:58:01.385Z,7.28
2019-01-06T07:59:00.156Z,7.17
2019-01-06T07:59:58.727Z,7.23
2019-01-06T08:00:57.424Z,7.07
2019-01-06T08:01:56.049Z,7.12
2019-01-06T08:02:54.623Z,7.12
2019-01-06T08:03:53.222Z,7.07
2019-01-06T08:04:51.941Z,7.16
2019-01-06T08:07:32.228Z,7.31
2019-01-06T08:08:30.816Z,7.24
2019-01-06T08:09:29.916Z,7.21
2019-01-06T08:12:05.697Z,7.37
2019-01-06T08:13:04.689Z,7.3
2019-01-06T08:14:03.553Z,7.23
2019-01-06T08:15:02.198Z,7.21
2019-01-06T08:16:00.887Z,7.27
2019-01-06T08:17:00.051Z,7.28
2019-01-06T08:17:58.735Z,7.3
2019-01-06T08:18:57.278Z,7.28
2019-01-06T08:19:55.855Z,7.46
2019-01-06T08:20:54.428Z,7.43
2019-01-06T08:21:53.017Z,7.45
2019-01-06T08:22:51.977Z,7.35
2019-01-06T08:23:50.496Z,7.35
2019-01-06T08:26:30.731Z,7.39
2019-01-06T08:27:29.288Z,7.37
2019-01-06T08:28:27.864Z,7.3
2019-01-06T08:29:26.537Z,7.3
2019-01-06T08:30:25.156Z,7.31
2019-01-06T08:33:05.502Z,7.34
2019-01-06T08:36:44.636Z,7.23
2019-01-06T08:37:43.432Z,7.28
2019-01-06T08:38:42.160Z,7.28
2019-01-06T08:39:40.756Z,7.27
2019-01-06T08:40:39.454Z,7.34
2019-01-06T08:41:38.022Z,7.27
2019-01-06T08:42:36.686Z,7.28
2019-01-06T08:43:35.600Z,7.27
2019-01-06T08:44:34.334Z,7.42
2019-01-06T08:45:34.317Z,7.39
2019-01-06T08:46:31.823Z,7.5
2019-01-06T08:47:30.444Z,7.45
2019-01-06T08:48:29.131Z,7.45
2019-01-06T08:49:27.844Z,7.42
2019-01-06T08:50:26.402Z,7.4
2019-01-06T08:51:24.955Z,7.48
2019-01-06T08:52:23.474Z,7.53
2019-01-06T08:53:22.023Z,7.5
2019-01-06T08:54:20.554Z,7.42
2019-01-06T08:55:19.284Z,7.31
2019-01-06T08:56:18.032Z,7.4
2019-01-06T08:57:16.561Z,7.35
2019-01-06T08:58:15.270Z,7.42
2019-01-06T08:59:14.064Z,7.39
2019-01-06T09:00:13.535Z,7.4
2019-01-06T09:01:12.107Z,7.42
2019-01-06T09:02:10.831Z,7.39
2019-01-06T09:03:09.354Z,7.55
2019-01-06T09:04:08.233Z,7.53
2019-01-06T09:05:06.759Z,7.55
2019-01-06T09:06:05.444Z,7.5
2019-01-06T09:07:04.159Z,7.57
2019-01-06T09:08:02.749Z,7.53
2019-01-06T09:10:43.003Z,7.53
2019-01-06T09:11:41.930Z,7.42
2019-01-06T09:12:42.883Z,7.43
2019-01-06T09:13:39.024Z,7.49
2019-01-06T09:14:38.009Z,7.35
2019-01-06T09:15:36.589Z,7.39
2019-01-06T09:16:35.105Z,7.42
2019-01-06T09:17:33.957Z,7.43
2019-01-06T09:18:32.496Z,7.46
2019-01-06T09:19:31.023Z,7.52
2019-01-06T09:20:29.694Z,7.49
2019-01-06T09:21:28.655Z,7.39
2019-01-06T09:22:27.428Z,7.45
2019-01-06T09:23:26.233Z,7.53
2019-01-06T09:24:24.860Z,7.53
2019-01-06T09:25:23.393Z,7.48
2019-01-06T09:26:22.019Z,7.58
2019-01-06T09:27:20.507Z,7.52
2019-01-06T09:28:19.096Z,7.53
2019-01-06T09:39:48.051Z,7.5
2019-01-06T09:40:47.642Z,7.53
2019-01-06T09:41:45.266Z,7.58
2019-01-06T09:42:43.983Z,7.52
2019-01-06T09:43:42.602Z,7.57
2019-01-06T09:44:41.343Z,7.53
2019-01-06T09:45:40.170Z,7.49
2019-01-06T09:46:38.714Z,7.53
2019-01-06T09:47:37.397Z,7.48
2019-01-06T09:48:36.129Z,7.57
2019-01-06T09:49:34.798Z,7.6
2019-01-06T09:50:33.763Z,7.61
2019-01-06T09:51:32.373Z,7.69
2019-01-06T09:52:31.054Z,7.72
2019-01-06T09:53:29.629Z,7.87
2019-01-06T09:54:28.181Z,7.87
2019-01-06T09:55:26.856Z,7.83
2019-01-06T09:56:25.460Z,7.87
2019-01-06T09:57:24.585Z,7.67
2019-01-06T09:58:23.157Z,7.75
2019-01-06T09:59:22.020Z,7.69
2019-01-06T10:00:20.575Z,7.58
2019-01-06T10:01:19.097Z,7.55
2019-01-06T10:02:17.965Z,7.64
2019-01-06T10:03:16.547Z,7.57
2019-01-06T10:04:15.138Z,7.79
2019-01-06T10:05:13.711Z,7.68
2019-01-06T10:06:12.369Z,7.67
2019-01-06T10:07:10.980Z,7.61
2019-01-06T10:08:09.626Z,7.61
2019-01-06T10:09:08.336Z,7.58
2019-01-06T10:10:07.062Z,7.68
2019-01-06T10:11:05.737Z,7.63
2019-01-06T10:12:04.314Z,7.67
2019-01-06T10:13:02.904Z,7.67
2019-01-06T10:14:02.656Z,7.64
2019-01-06T10:14:59.977Z,7.74
2019-01-06T10:15:58.781Z,7.75
2019-01-06T10:16:57.304Z,7.67
2019-01-06T10:17:56.188Z,7.67
2019-01-06T10:18:54.779Z,7.71
2019-01-06T10:19:53.461Z,7.67
2019-01-06T10:20:52.008Z,7.69
2019-01-06T10:21:50.695Z,7.82
2019-01-06T10:22:49.395Z,7.79
2019-01-06T10:23:48.280Z,7.85
2019-01-06T10:24:51.772Z,7.89
2019-01-06T10:25:45.561Z,7.69
2019-01-06T10:26:44.110Z,7.67
2019-01-06T10:27:42.737Z,7.53
2019-01-06T10:28:41.433Z,7.49
2019-01-06T10:29:40.179Z,7.45
2019-01-06T10:30:38.683Z,7.37
2019-01-06T10:31:37.416Z,7.4
2019-01-06T10:32:36.129Z,7.43
2019-01-06T10:33:36.359Z,7.49
2019-01-06T10:34:33.140Z,7.52
2019-01-06T10:35:31.724Z,7.48
2019-01-06T10:36:30.297Z,7.57
2019-01-06T10:37:28.914Z,7.52
2019-01-06T10:38:27.683Z,7.53
2019-01-06T10:39:26.316Z,7.45
2019-01-06T10:40:24.873Z,7.39
2019-01-06T10:41:23.622Z,7.37
2019-01-06T10:42:22.320Z,7.4
2019-01-06T10:43:20.858Z,7.4
2019-01-06T10:44:19.754Z,7.4
2019-01-06T10:45:18.411Z,7.39
2019-01-06T10:46:16.972Z,7.4
2019-01-06T10:47:15.756Z,7.39
2019-01-06T10:48:14.277Z,7.32
2019-01-06T10:49:12.982Z,7.43
2019-01-06T10:50:12.196Z,7.49
2019-01-06T10:51:10.753Z,7.42
2019-01-06T10:52:09.326Z,7.46
2019-01-06T10:53:07.958Z,7.45
2019-01-06T10:54:06.509Z,7.45
2019-01-06T10:55:05.129Z,7.49
2019-01-06T10:56:03.949Z,7.53
2019-01-06T10:57:02.508Z,7.46
2019-01-06T10:58:01.076Z,7.43
2019-01-06T10:58:59.869Z,7.45
2019-01-06T10:59:58.390Z,7.49
2019-01-06T11:00:56.951Z,7.58
2019-01-06T11:01:55.767Z,7.55
2019-01-06T11:02:54.352Z,7.49
2019-01-06T11:03:53.028Z,7.53
2019-01-06T11:04:51.931Z,7.57
2019-01-06T11:05:50.559Z,7.52
2019-01-06T11:06:49.154Z,7.52
2019-01-06T11:07:47.959Z,7.5
2019-01-06T11:08:46.540Z,7.52
2019-01-06T11:09:45.508Z,7.53
2019-01-06T11:10:44.268Z,7.57
2019-01-06T11:11:42.860Z,7.55
2019-01-06T11:12:41.660Z,7.49
2019-01-06T11:13:40.281Z,7.52
2019-01-06T11:14:38.850Z,7.48
2019-01-06T11:15:38.061Z,7.53
2019-01-06T11:16:36.336Z,7.52
2019-01-06T11:17:34.868Z,7.58
2019-01-06T11:18:33.454Z,7.52
2019-01-06T11:19:32.076Z,7.68
2019-01-06T11:20:30.889Z,7.72
2019-01-06T11:21:29.902Z,7.75
2019-01-06T11:22:28.451Z,7.8
2019-01-06T11:23:26.943Z,7.87
2019-01-06T11:24:25.506Z,7.79
2019-01-06T11:25:24.021Z,7.77
2019-01-06T11:26:22.728Z,7.72
2019-01-06T11:27:21.475Z,7.64
2019-01-06T11:28:20.187Z,7.68
2019-01-06T11:29:18.729Z,7.67
2019-01-06T11:30:17.362Z,7.68
2019-01-06T11:31:16.088Z,7.61
2019-01-06T11:32:14.772Z,7.57
2019-01-06T11:33:13.522Z,7.63
2019-01-06T11:34:12.259Z,7.68
2019-01-06T11:35:10.760Z,7.5
2019-01-06T11:36:09.538Z,7.75
2019-01-06T11:37:08.104Z,7.75
2019-01-06T11:38:06.948Z,7.75
2019-01-06T11:39:05.913Z,7.83
2019-01-06T11:40:04.636Z,7.71
2019-01-06T11:41:07.806Z,7.74
2019-01-06T11:42:01.761Z,7.75
2019-01-06T11:43:00.354Z,7.79
2019-01-06T11:43:58.933Z,7.83
2019-01-06T11:44:57.576Z,7.82
2019-01-06T11:45:56.268Z,7.79
2019-01-06T11:46:54.937Z,7.82
2019-01-06T11:47:53.598Z,7.87
2019-01-06T11:48:52.328Z,7.98
2019-01-06T11:49:50.984Z,7.86
2019-01-06T11:50:49.730Z,7.98
2019-01-06T11:51:48.367Z,7.89
2019-01-06T11:52:47.087Z,7.98
2019-01-06T11:53:45.861Z,8.01
2019-01-06T11:54:44.363Z,8.01
2019-01-06T11:55:42.890Z,7.86
2019-01-06T11:56:41.454Z,7.9
2019-01-06T11:57:40.082Z,7.79
2019-01-06T11:58:38.707Z,7.71
2019-01-06T11:59:37.505Z,7.74
2019-01-06T12:00:36.178Z,7.75
2019-01-06T12:01:34.715Z,7.67
2019-01-06T12:02:38.971Z,7.72
2019-01-06T12:03:32.158Z,7.5
2019-01-06T12:04:30.741Z,7.53
2019-01-06T12:05:29.403Z,7.43
2019-01-06T12:06:28.198Z,7.42
2019-01-06T12:07:27.599Z,7.49
2019-01-06T12:08:26.251Z,7.77
2019-01-06T12:09:25.106Z,7.63
2019-01-06T12:10:23.669Z,7.61
2019-01-06T12:11:22.182Z,7.61
2019-01-06T12:12:20.743Z,7.5
2019-01-06T12:13:19.363Z,7.46
2019-01-06T12:14:18.062Z,7.55
2019-01-06T12:15:17.158Z,7.61
2019-01-06T12:16:15.691Z,7.64
2019-01-06T12:18:55.986Z,7.68
2019-01-06T12:19:54.657Z,7.52
2019-01-06T12:20:53.297Z,7.57
2019-01-06T12:21:52.006Z,7.74
2019-01-06T12:22:50.570Z,7.74
2019-01-06T12:23:49.146Z,7.74
2019-01-06T12:24:47.743Z,7.74
2019-01-06T12:25:46.353Z,7.71
2019-01-06T12:26:44.912Z,7.68
2019-01-06T12:27:44.082Z,7.77
2019-01-06T12:28:42.627Z,7.68
2019-01-06T12:29:41.272Z,7.61
2019-01-06T12:30:39.905Z,7.69
2019-01-06T12:31:38.437Z,7.67
2019-01-06T12:32:37.101Z,7.77
2019-01-06T12:33:35.978Z,7.77
2019-01-06T12:34:34.626Z,7.72
2019-01-06T12:35:33.269Z,7.67
2019-01-06T12:36:31.923Z,7.64
2019-01-06T12:37:30.572Z,7.69
2019-01-06T12:38:29.247Z,7.68
2019-01-06T12:39:28.131Z,7.64
2019-01-06T12:40:26.704Z,7.58
2019-01-06T12:41:25.301Z,7.57
2019-01-06T12:42:23.971Z,7.52
2019-01-06T12:43:22.525Z,7.64
2019-01-06T12:44:21.071Z,7.63
2019-01-06T12:45:19.604Z,7.67
2019-01-06T12:46:18.172Z,7.69
2019-01-06T12:47:16.690Z,7.77
2019-01-06T12:48:15.423Z,7.48
2019-01-06T12:49:14.319Z,7.52
2019-01-06T12:50:12.913Z,7.5
2019-01-06T12:51:11.655Z,7.58
2019-01-06T12:52:10.296Z,7.53
2019-01-06T12:53:08.869Z,7.49
2019-01-06T12:54:07.522Z,7.63
2019-01-06T12:55:06.180Z,7.52
2019-01-06T12:56:04.785Z,7.58
2019-01-06T12:57:03.450Z,7.64
2019-01-06T12:58:02.130Z,7.5
2019-01-06T12:59:00.717Z,7.64
2019-01-06T12:59:59.330Z,7.71
2019-01-06T13:00:58.182Z,7.61
2019-01-06T13:01:56.721Z,7.72
2019-01-06T13:02:55.591Z,7.71
2019-01-06T13:03:54.449Z,7.75
2019-01-06T13:04:53.050Z,7.82
2019-01-06T13:05:51.773Z,7.92
2019-01-06T13:06:50.375Z,7.8
2019-01-06T13:07:48.989Z,7.83
2019-01-06T13:08:47.753Z,7.77
2019-01-06T13:09:46.560Z,7.79
2019-01-06T13:10:45.134Z,7.79
2019-01-06T13:11:44.856Z,7.82
2019-01-06T13:12:43.615Z,7.82
2019-01-06T13:13:42.340Z,7.79
2019-01-06T13:14:40.905Z,7.67
2019-01-06T13:15:39.625Z,7.63
2019-01-06T13:16:38.143Z,7.57
2019-01-06T13:17:36.668Z,7.67
2019-01-06T13:18:35.310Z,7.72
2019-01-06T13:19:34.084Z,7.82
2019-01-06T13:20:32.648Z,7.75
2019-01-06T13:21:31.421Z,7.83
2019-01-06T13:22:30.022Z,7.75
2019-01-06T13:25:10.620Z,7.71
2019-01-06T13:27:50.912Z,7.93
2019-01-06T13:28:49.432Z,7.74
2019-01-06T13:32:28.753Z,7.67
2019-01-06T13:33:27.294Z,7.74
2019-01-06T13:34:26.015Z,7.74
2019-01-06T13:35:24.568Z,7.72
2019-01-06T13:36:23.268Z,7.77
2019-01-06T13:40:11.550Z,7.82
2019-01-06T13:41:10.275Z,7.79
2019-01-06T13:42:08.831Z,7.72
2019-01-06T13:43:07.500Z,7.86
2019-01-06T13:44:06.228Z,7.74
2019-01-06T13:45:04.820Z,7.68
2019-01-06T13:47:45.170Z,7.52
2019-01-06T13:48:44.016Z,7.75
2019-01-06T13:49:42.563Z,7.69
2019-01-06T13:50:41.158Z,7.69
2019-01-06T13:51:40.098Z,7.63
2019-01-06T13:52:38.726Z,7.69
2019-01-06T13:53:37.492Z,7.74
2019-01-06T13:54:36.280Z,7.71
2019-01-06T13:57:16.773Z,7.68
2019-01-06T13:59:57.070Z,7.58
2019-01-06T14:00:56.361Z,7.55
2019-01-06T14:03:36.664Z,7.69
2019-01-06T14:04:35.581Z,7.83
2019-01-06T14:05:34.345Z,7.85
2019-01-06T14:06:32.900Z,7.82
2019-01-06T14:07:31.624Z,7.92
2019-01-06T14:08:30.463Z,7.77
2019-01-06T14:09:29.233Z,7.75